createdAt,value
2023-02-08T00:00:50.159Z,30.83
2023-02-08T00:03:37.497Z,28.70
2023-02-08T00:06:24.939Z,26.95
2023-02-08T00:09:12.280Z,36.00
2023-02-08T00:11:59.958Z,31.35
2023-02-08T00:14:47.522Z,39.30
2023-02-08T00:17:36.346Z,38.20
2023-02-08T00:20:23.934Z,34.80
2023-02-08T00:23:11.932Z,29.98
2023-02-08T00:25:59.603Z,36.20
2023-02-08T00:28:47.139Z,35.17
2023-02-08T00:31:37.897Z,34.47
2023-02-08T00:34:26.845Z,37.20
2023-02-08T00:37:14.276Z,42.72
2023-02-08T00:40:02.694Z,43.92
2023-02-08T00:42:50.773Z,51.13
2023-02-08T00:45:38.478Z,48.63
2023-02-08T00:48:25.785Z,37.65
2023-02-08T00:51:16.694Z,45.08
2023-02-08T00:54:04.126Z,49.65
2023-02-08T00:56:51.974Z,44.63
2023-02-08T00:59:39.495Z,45.90
2023-02-08T01:02:27.373Z,40.63
2023-02-08T01:05:14.798Z,37.72
2023-02-08T01:08:03.430Z,39.70
2023-02-08T01:10:50.996Z,37.20
2023-02-08T01:13:39.301Z,40.92
2023-02-08T01:16:31.896Z,46.75
2023-02-08T01:19:21.285Z,44.65
2023-02-08T01:22:09.023Z,37.35
2023-02-08T01:24:57.810Z,25.63
2023-02-08T01:27:45.436Z,30.90
2023-02-08T01:30:33.539Z,29.40
2023-02-08T01:33:21.276Z,27.02
2023-02-08T01:36:09.933Z,24.85
2023-02-08T01:38:57.610Z,25.48
2023-02-08T01:41:47.469Z,23.23
2023-02-08T01:45:28.924Z,18.70
2023-02-08T01:48:21.035Z,17.85
2023-02-08T01:51:12.194Z,15.60
2023-02-08T01:54:00.545Z,17.40
2023-02-08T01:56:51.075Z,19.95
2023-02-08T01:59:43.952Z,15.23
2023-02-08T02:02:32.967Z,17.17
2023-02-08T02:05:22.233Z,24.05
2023-02-08T02:08:10.994Z,17.58
2023-02-08T02:10:58.484Z,19.35
2023-02-08T02:13:50.740Z,21.40
2023-02-08T02:16:38.778Z,16.25
2023-02-08T02:19:34.579Z,14.88
2023-02-08T02:23:02.968Z,15.77
2023-02-08T02:29:40.994Z,16.50
2023-02-08T02:32:43.459Z,17.88
2023-02-08T02:35:43.651Z,14.00
2023-02-08T02:38:42.965Z,16.38
2023-02-08T02:41:57.623Z,14.23
2023-02-08T02:44:54.643Z,14.13
2023-02-08T02:50:38.384Z,14.57
2023-02-08T02:53:30.701Z,18.75
2023-02-08T02:56:22.467Z,12.95
2023-02-08T02:59:13.171Z,16.88
2023-02-08T03:02:00.812Z,13.48
2023-02-08T03:04:55.689Z,17.00
2023-02-08T03:08:10.467Z,14.70
2023-02-08T03:11:15.846Z,13.90
2023-02-08T03:14:16.407Z,13.27
2023-02-08T03:17:17.571Z,15.90
2023-02-08T03:20:10.994Z,13.50
2023-02-08T03:23:03.587Z,13.25
2023-02-08T03:26:00.671Z,13.13
2023-02-08T03:28:56.897Z,12.85
2023-02-08T03:31:52.453Z,15.35
2023-02-08T03:34:48.197Z,13.63
2023-02-08T03:37:42.126Z,12.60
2023-02-08T03:40:33.744Z,13.02
2023-02-08T03:43:25.288Z,13.90
2023-02-08T03:46:18.413Z,14.52
2023-02-08T03:49:08.918Z,17.67
2023-02-08T03:51:59.564Z,15.52
2023-02-08T03:54:52.697Z,19.08
2023-02-08T03:57:47.534Z,13.07
2023-02-08T04:00:40.556Z,14.02
2023-02-08T04:03:31.682Z,15.02
2023-02-08T04:06:19.518Z,20.42
2023-02-08T04:09:07.251Z,16.77
2023-02-08T04:11:55.987Z,14.85
2023-02-08T04:14:43.363Z,23.23
2023-02-08T04:17:30.719Z,19.88
2023-02-08T04:20:18.324Z,18.05
2023-02-08T04:23:06.061Z,18.00
2023-02-08T04:25:53.664Z,19.23
2023-02-08T04:28:42.457Z,19.58
2023-02-08T04:31:30.309Z,24.83
2023-02-08T04:34:18.349Z,19.38
2023-02-08T04:37:06.048Z,19.35
2023-02-08T04:39:53.829Z,18.98
2023-02-08T04:42:41.416Z,24.60
2023-02-08T04:45:32.202Z,18.08
2023-02-08T04:48:19.946Z,22.35
2023-02-08T04:51:07.377Z,21.77
2023-02-08T04:53:54.886Z,18.85
2023-02-08T04:56:42.376Z,22.60
2023-02-08T04:59:29.942Z,22.40
2023-02-08T05:02:18.618Z,24.77
2023-02-08T05:05:06.575Z,22.73
2023-02-08T05:07:54.366Z,25.23
2023-02-08T05:10:46.991Z,26.60
2023-02-08T05:13:34.520Z,20.65
2023-02-08T05:16:22.139Z,30.23
2023-02-08T05:19:12.080Z,27.95
2023-02-08T05:21:59.469Z,27.65
2023-02-08T05:24:46.949Z,27.20
2023-02-08T05:27:35.921Z,31.33
2023-02-08T05:30:23.511Z,26.48
2023-02-08T05:33:11.090Z,33.42
2023-02-08T05:36:00.356Z,30.17
2023-02-08T05:38:48.178Z,28.98
2023-02-08T05:41:35.807Z,26.70
2023-02-08T05:44:23.350Z,22.10
2023-02-08T05:47:11.083Z,22.35
2023-02-08T05:49:58.409Z,25.23
2023-02-08T05:52:47.449Z,31.67
2023-02-08T05:55:35.208Z,24.45
2023-02-08T05:58:22.704Z,29.27
2023-02-08T06:01:11.534Z,27.98
2023-02-08T06:04:00.645Z,28.33
2023-02-08T06:06:48.108Z,27.15
2023-02-08T06:09:36.962Z,27.60
2023-02-08T06:12:24.689Z,27.08
2023-02-08T06:15:12.199Z,23.15
2023-02-08T06:18:00.136Z,26.17
2023-02-08T06:20:47.894Z,22.13
2023-02-08T06:23:35.724Z,23.90
2023-02-08T06:26:24.627Z,25.25
2023-02-08T06:29:11.985Z,22.95
2023-02-08T06:31:59.844Z,22.45
2023-02-08T06:34:48.485Z,28.20
2023-02-08T06:37:35.778Z,24.75
2023-02-08T06:40:23.954Z,27.05
2023-02-08T06:43:13.574Z,27.75
2023-02-08T06:46:04.873Z,23.67
2023-02-08T06:48:52.659Z,29.15
2023-02-08T06:51:41.486Z,21.63
2023-02-08T06:54:29.193Z,23.15
2023-02-08T06:57:16.840Z,23.85
2023-02-08T07:00:06.978Z,21.23
2023-02-08T07:02:54.396Z,23.35
2023-02-08T07:05:49.464Z,26.40
2023-02-08T07:08:43.062Z,25.15
2023-02-08T07:11:30.408Z,27.42
2023-02-08T07:14:17.733Z,16.85
2023-02-08T07:17:06.663Z,22.30
2023-02-08T07:19:54.675Z,28.50
2023-02-08T07:22:42.515Z,26.95
2023-02-08T07:25:30.170Z,41.20
2023-02-08T07:28:17.853Z,50.33
2023-02-08T07:31:07.203Z,59.63
2023-02-08T07:33:56.215Z,68.05
2023-02-08T07:36:43.795Z,60.70
2023-02-08T07:39:31.524Z,50.28
2023-02-08T07:42:19.597Z,51.03
2023-02-08T07:45:15.987Z,52.30
2023-02-08T07:48:03.418Z,47.15
2023-02-08T07:50:52.177Z,44.35
2023-02-08T07:53:40.558Z,54.90
2023-02-08T07:56:27.841Z,48.10
2023-02-08T07:59:16.164Z,57.42
2023-02-08T08:02:03.596Z,54.15
2023-02-08T08:04:54.156Z,67.28
2023-02-08T08:07:42.953Z,61.15
2023-02-08T08:10:30.302Z,62.60
2023-02-08T08:13:18.007Z,54.92
2023-02-08T08:16:05.836Z,59.03
2023-02-08T08:18:53.364Z,65.65
2023-02-08T08:21:40.821Z,59.30
2023-02-08T08:24:31.400Z,56.72
2023-02-08T08:27:18.867Z,58.45
2023-02-08T08:30:08.481Z,57.35
2023-02-08T08:32:56.171Z,57.60
2023-02-08T08:35:44.422Z,51.78
2023-02-08T08:38:31.955Z,52.28
2023-02-08T08:41:22.391Z,59.15
2023-02-08T08:44:09.870Z,49.38
2023-02-08T08:46:57.786Z,48.60
2023-02-08T08:49:45.534Z,49.97
2023-02-08T08:52:33.294Z,54.60
2023-02-08T08:55:20.902Z,58.08
2023-02-08T08:58:09.635Z,53.13
2023-02-08T09:00:58.913Z,54.85
2023-02-08T09:03:46.793Z,60.97
2023-02-08T09:06:35.060Z,60.55
2023-02-08T09:09:23.295Z,51.65
2023-02-08T09:12:10.928Z,57.60
2023-02-08T09:14:59.728Z,52.85
2023-02-08T09:17:47.593Z,55.47
2023-02-08T09:20:35.150Z,56.58
2023-02-08T09:23:22.448Z,54.28
2023-02-08T09:26:13.324Z,62.10
2023-02-08T09:29:01.006Z,60.30
2023-02-08T09:31:50.120Z,55.40
2023-02-08T09:34:37.805Z,60.60
2023-02-08T09:37:25.247Z,52.70
2023-02-08T09:40:23.784Z,57.08
2023-02-08T09:43:19.594Z,52.13
2023-02-08T09:46:11.970Z,50.80
2023-02-08T09:49:04.301Z,52.08
2023-02-08T09:51:55.352Z,50.03
2023-02-08T09:54:48.706Z,41.38
2023-02-08T09:57:37.354Z,51.03
2023-02-08T10:00:33.232Z,48.75
2023-02-08T10:03:30.809Z,43.58
2023-02-08T10:06:21.244Z,46.03
2023-02-08T10:09:15.182Z,43.70
2023-02-08T10:12:13.941Z,46.75
2023-02-08T10:15:11.541Z,43.13
2023-02-08T10:18:14.502Z,43.28
2023-02-08T10:21:25.962Z,49.08
2023-02-08T10:24:31.906Z,48.67
2023-02-08T10:27:25.761Z,46.58
2023-02-08T10:30:26.002Z,42.63
2023-02-08T10:33:19.879Z,40.83
2023-02-08T10:36:15.728Z,46.10
2023-02-08T10:39:11.520Z,39.80
2023-02-08T10:42:00.225Z,37.03
2023-02-08T10:45:04.067Z,42.83
2023-02-08T10:47:55.989Z,38.55
2023-02-08T10:50:46.083Z,40.72
2023-02-08T10:53:33.643Z,48.03
2023-02-08T10:56:35.892Z,40.97
2023-02-08T10:59:27.044Z,40.20
2023-02-08T11:02:22.400Z,39.08
2023-02-08T11:05:13.505Z,42.80
2023-02-08T11:08:09.622Z,40.08
2023-02-08T11:10:59.892Z,35.27
2023-02-08T11:13:51.457Z,41.13
2023-02-08T11:16:39.796Z,42.08
2023-02-08T11:19:35.538Z,42.00
2023-02-08T11:22:26.125Z,41.90
2023-02-08T11:25:35.770Z,45.67
2023-02-08T11:28:27.528Z,45.22
2023-02-08T11:31:20.978Z,39.83
2023-02-08T11:34:10.285Z,40.55
2023-02-08T11:37:00.498Z,42.15
2023-02-08T11:39:54.329Z,50.50
2023-02-08T11:42:44.323Z,39.90
2023-02-08T11:45:34.322Z,43.22
2023-02-08T11:48:27.334Z,44.78
2023-02-08T11:51:24.577Z,38.58
2023-02-08T11:54:41.406Z,36.45
2023-02-08T11:57:29.152Z,45.80
2023-02-08T12:00:20.997Z,41.60
2023-02-08T12:03:15.709Z,42.45
2023-02-08T12:06:17.400Z,37.83
2023-02-08T12:09:18.041Z,37.78
2023-02-08T12:12:18.807Z,49.35
2023-02-08T12:15:13.218Z,46.33
2023-02-08T12:18:12.700Z,38.92
2023-02-08T12:21:08.343Z,41.58
2023-02-08T12:23:58.722Z,36.30
2023-02-08T12:27:01.568Z,41.80
2023-02-08T12:29:54.549Z,42.92
2023-02-08T12:33:29.286Z,41.85
2023-02-08T12:36:36.568Z,38.10
2023-02-08T12:39:54.098Z,39.67
2023-02-08T12:42:54.250Z,38.65
2023-02-08T12:46:06.276Z,40.13
2023-02-08T12:49:04.220Z,43.47
2023-02-08T12:52:03.207Z,44.00
2023-02-08T12:54:55.549Z,44.65
2023-02-08T12:57:46.020Z,41.90
2023-02-08T13:00:35.891Z,38.92
2023-02-08T13:03:36.461Z,37.90
2023-02-08T13:06:26.686Z,48.03
2023-02-08T13:09:23.494Z,47.63
2023-02-08T13:12:17.255Z,44.95
2023-02-08T13:15:13.749Z,50.08
2023-02-08T13:18:16.743Z,42.05
2023-02-08T13:21:07.909Z,46.35
2023-02-08T13:23:56.297Z,53.72
2023-02-08T13:26:45.740Z,45.80
2023-02-08T13:29:33.715Z,46.05
2023-02-08T13:32:30.234Z,46.63
2023-02-08T13:35:20.317Z,38.25
2023-02-08T13:38:24.837Z,44.63
2023-02-08T13:41:17.779Z,40.60
2023-02-08T13:44:17.894Z,36.47
2023-02-08T13:47:06.328Z,38.05
2023-02-08T13:49:57.037Z,38.08
2023-02-08T13:52:52.601Z,44.70
2023-02-08T13:55:56.796Z,40.90
2023-02-08T13:59:07.118Z,45.05
2023-02-08T14:02:27.081Z,45.20
2023-02-08T14:05:45.348Z,47.92
2023-02-08T14:08:41.819Z,38.83
2023-02-08T14:11:40.382Z,43.25
2023-02-08T14:14:31.435Z,47.63
2023-02-08T14:17:23.670Z,41.63
2023-02-08T14:20:20.785Z,45.80
2023-02-08T14:23:22.319Z,40.38
2023-02-08T14:26:11.727Z,38.30
2023-02-08T14:29:03.417Z,39.40
2023-02-08T14:31:53.474Z,38.17
2023-02-08T14:34:41.979Z,38.03
2023-02-08T14:37:31.538Z,36.92
2023-02-08T14:40:48.773Z,35.88
2023-02-08T14:43:38.549Z,40.88
2023-02-08T14:46:45.093Z,35.60
2023-02-08T14:49:40.803Z,44.17
2023-02-08T14:52:30.327Z,37.33
2023-02-08T14:55:21.849Z,35.45
2023-02-08T14:58:14.164Z,44.28
2023-02-08T15:01:04.130Z,39.50
2023-02-08T15:03:55.528Z,39.22
2023-02-08T15:07:02.251Z,40.42
2023-02-08T15:09:49.790Z,41.65
2023-02-08T15:12:40.242Z,37.67
2023-02-08T15:15:31.608Z,40.97
2023-02-08T15:18:23.468Z,43.28
2023-02-08T15:21:18.012Z,41.28
2023-02-08T15:24:15.877Z,38.95
2023-02-08T15:27:03.204Z,40.83
2023-02-08T15:29:50.688Z,37.97
2023-02-08T15:32:38.426Z,38.58
2023-02-08T15:35:27.326Z,43.25
2023-02-08T15:38:19.500Z,39.25
2023-02-08T15:41:10.760Z,45.03
2023-02-08T15:44:04.695Z,39.05
2023-02-08T15:49:44.112Z,38.35
2023-02-08T15:52:36.161Z,38.92
2023-02-08T15:55:24.286Z,45.10
2023-02-08T15:58:22.042Z,38.15
2023-02-08T16:01:16.308Z,36.03
2023-02-08T16:04:08.374Z,38.53
2023-02-08T16:06:59.277Z,41.10
2023-02-08T16:09:48.553Z,42.20
2023-02-08T16:12:37.187Z,46.05
2023-02-08T16:15:45.068Z,48.78
2023-02-08T16:18:41.650Z,41.80
2023-02-08T16:21:34.018Z,44.95
2023-02-08T16:24:25.342Z,45.17
2023-02-08T16:27:21.566Z,41.80
2023-02-08T16:30:19.042Z,45.00
2023-02-08T16:33:09.894Z,44.08
2023-02-08T16:36:01.922Z,68.05
2023-02-08T16:39:46.954Z,78.47
2023-02-08T16:42:36.916Z,66.07
2023-02-08T16:45:24.338Z,59.78
2023-02-08T16:48:33.434Z,54.08
2023-02-08T16:51:23.033Z,49.78
2023-02-08T16:54:15.364Z,44.05
2023-02-08T16:57:05.920Z,49.50
2023-02-08T16:59:56.785Z,51.15
2023-02-08T17:02:44.295Z,59.00
2023-02-08T17:05:37.674Z,57.15
2023-02-08T17:08:25.345Z,60.00
2023-02-08T17:11:12.801Z,62.38
2023-02-08T17:14:00.211Z,58.90
2023-02-08T17:16:47.731Z,61.42
2023-02-08T17:19:35.352Z,56.50
2023-02-08T17:22:24.052Z,60.03
2023-02-08T17:25:15.606Z,57.65
2023-02-08T17:28:05.172Z,72.75
2023-02-08T17:30:53.272Z,87.78
2023-02-08T17:33:41.180Z,120.85
2023-02-08T17:36:28.669Z,86.47
2023-02-08T17:39:17.873Z,88.20
2023-02-08T17:42:05.548Z,95.07
2023-02-08T17:44:53.136Z,90.63
2023-02-08T17:47:41.800Z,86.75
2023-02-08T17:50:29.230Z,100.63
2023-02-08T17:53:17.241Z,105.47
2023-02-08T17:56:08.419Z,126.57
2023-02-08T17:58:57.746Z,128.05
2023-02-08T18:01:45.771Z,130.05
2023-02-08T18:04:33.401Z,136.45
2023-02-08T18:07:21.649Z,127.13
2023-02-08T18:10:10.498Z,115.70
2023-02-08T18:13:00.204Z,105.50
2023-02-08T18:15:48.356Z,105.93
2023-02-08T18:18:35.661Z,112.53
2023-02-08T18:21:25.591Z,102.40
2023-02-08T18:24:13.036Z,101.50
2023-02-08T18:27:00.510Z,106.53
2023-02-08T18:29:49.593Z,94.72
2023-02-08T18:32:37.047Z,105.00
2023-02-08T18:35:24.440Z,102.55
2023-02-08T18:38:12.359Z,102.88
2023-02-08T18:40:59.876Z,94.30
2023-02-08T18:43:47.416Z,99.28
2023-02-08T18:46:36.524Z,93.35
2023-02-08T18:49:24.386Z,84.97
2023-02-08T18:52:13.481Z,95.13
2023-02-08T18:55:01.257Z,81.45
2023-02-08T18:57:49.026Z,111.82
2023-02-08T19:00:36.680Z,91.78
2023-02-08T19:03:25.655Z,89.60
2023-02-08T19:06:16.361Z,104.15
2023-02-08T19:09:06.472Z,105.85
2023-02-08T19:11:54.651Z,99.72
2023-02-08T19:14:43.275Z,102.30
2023-02-08T19:17:30.699Z,104.55
2023-02-08T19:20:19.675Z,104.93
2023-02-08T19:23:07.397Z,114.13
2023-02-08T19:25:55.284Z,137.40
2023-02-08T19:28:42.720Z,133.55
2023-02-08T19:31:30.742Z,143.20
2023-02-08T19:34:18.627Z,138.70
2023-02-08T19:37:07.627Z,133.07
2023-02-08T19:39:55.507Z,154.60
2023-02-08T19:42:44.539Z,137.98
2023-02-08T19:45:32.305Z,160.80
2023-02-08T19:48:22.074Z,131.05
2023-02-08T19:51:10.635Z,127.40
2023-02-08T19:54:01.032Z,122.30
2023-02-08T19:56:50.340Z,116.60
2023-02-08T19:59:37.921Z,118.80
2023-02-08T20:02:27.415Z,126.28
2023-02-08T20:05:15.328Z,102.80
2023-02-08T20:08:02.964Z,91.72
2023-02-08T20:10:51.849Z,115.85
2023-02-08T20:13:39.454Z,118.60
2023-02-08T20:16:31.238Z,151.30
2023-02-08T20:19:19.084Z,165.20
2023-02-08T20:22:06.820Z,189.38
2023-02-08T20:24:54.699Z,168.35
2023-02-08T20:27:43.821Z,170.05
2023-02-08T20:30:31.186Z,151.27
2023-02-08T20:33:18.620Z,155.77
2023-02-08T20:36:10.987Z,165.18
2023-02-08T20:38:59.386Z,152.10
2023-02-08T20:41:47.599Z,156.10
2023-02-08T20:44:36.777Z,151.35
2023-02-08T20:47:24.191Z,165.52
2023-02-08T20:50:18.771Z,185.50
2023-02-08T20:53:07.534Z,178.77
2023-02-08T20:55:54.905Z,186.68
2023-02-08T20:58:42.955Z,196.13
2023-02-08T21:01:41.794Z,193.63
2023-02-08T21:04:29.562Z,178.75
2023-02-08T21:07:17.644Z,171.88
2023-02-08T21:10:05.273Z,170.20
2023-02-08T21:12:52.938Z,169.45
2023-02-08T21:15:43.714Z,151.02
2023-02-08T21:18:32.777Z,163.20
2023-02-08T21:21:21.146Z,163.63
2023-02-08T21:24:08.972Z,173.13
2023-02-08T21:26:57.814Z,159.23
2023-02-08T21:29:45.240Z,152.18
2023-02-08T21:32:33.036Z,166.50
2023-02-08T21:35:22.044Z,163.00
2023-02-08T21:38:09.706Z,140.45
2023-02-08T21:40:57.043Z,155.25
2023-02-08T21:43:44.726Z,146.02
2023-02-08T21:46:33.154Z,152.18
2023-02-08T21:49:38.010Z,145.40
2023-02-08T21:52:44.412Z,142.95
2023-02-08T21:55:31.986Z,150.63
2023-02-08T21:58:19.652Z,132.25
2023-02-08T22:01:07.273Z,128.57
2023-02-08T22:03:54.586Z,149.77
2023-02-08T22:06:50.732Z,147.98
2023-02-08T22:09:41.617Z,168.63
2023-02-08T22:12:28.903Z,160.98
2023-02-08T22:15:18.507Z,150.10
2023-02-08T22:18:06.418Z,153.00
2023-02-08T22:20:54.025Z,149.23
2023-02-08T22:23:41.738Z,140.98
2023-02-08T22:26:30.672Z,148.80
2023-02-08T22:29:18.200Z,151.18
2023-02-08T22:32:07.561Z,130.63
2023-02-08T22:34:55.160Z,143.73
2023-02-08T22:37:42.818Z,121.43
2023-02-08T22:40:30.637Z,122.18
2023-02-08T22:43:19.710Z,131.38
2023-02-08T22:46:07.898Z,138.20
2023-02-08T22:48:55.783Z,141.32
2023-02-08T22:51:43.517Z,127.72
2023-02-08T22:54:31.089Z,132.73
2023-02-08T22:57:18.986Z,121.80
2023-02-08T23:00:10.301Z,124.15
2023-02-08T23:02:58.054Z,122.90
2023-02-08T23:05:48.224Z,137.15
2023-02-08T23:08:36.981Z,122.18
2023-02-08T23:11:24.985Z,124.32
2023-02-08T23:14:12.630Z,131.45
2023-02-08T23:17:01.734Z,126.28
2023-02-08T23:19:49.555Z,114.40
2023-02-08T23:22:37.932Z,141.13
2023-02-08T23:25:25.674Z,139.00
2023-02-08T23:28:13.833Z,131.85
2023-02-08T23:31:01.588Z,128.40
2023-02-08T23:33:51.314Z,126.07
2023-02-08T23:36:38.916Z,119.35
2023-02-08T23:39:26.571Z,121.00
2023-02-08T23:42:25.480Z,124.47
2023-02-08T23:45:13.056Z,116.18
2023-02-08T23:48:00.794Z,104.55
2023-02-08T23:50:58.026Z,116.45
2023-02-08T23:53:45.842Z,128.95
2023-02-08T23:56:33.658Z,125.97
2023-02-08T23:59:21.552Z,117.78
